Time,TemperatureF,DewpointF,PressureIn,WindDirection,WindDirectionDegrees,WindSpeedMPH,WindSpeedGustMPH,Humidity,HourlyPrecipIn,Conditions,Clouds,dailyrainin,SoftwareType,DateUTC
2013-10-11 00:05:00,51.6,43.2,30.02,NNE,32,0.0,0.0,73,0.00,,,-99.99,Weather View 32 v60,2013-10-11 07:05:00,
2013-10-11 00:19:00,51.1,43.1,30.02,NNE,32,0.0,0.0,74,0.00,,,-99.99,Weather View 32 v60,2013-10-11 07:19:00,
2013-10-11 00:29:00,51.1,43.4,30.02,NNE,32,0.0,0.0,75,0.00,,,-99.99,Weather View 32 v60,2013-10-11 07:29:00,
2013-10-11 00:39:00,50.7,43.4,30.02,NNE,32,0.0,0.0,76,0.00,,,-99.99,Weather View 32 v60,2013-10-11 07:39:00,
2013-10-11 00:49:00,50.4,43.1,30.02,NNE,32,0.0,0.0,76,0.00,,,-99.99,Weather View 32 v60,2013-10-11 07:49:00,
2013-10-11 00:59:00,50.2,43.2,30.02,NNE,32,0.0,0.0,77,0.00,,,-99.99,Weather View 32 v60,2013-10-11 07:59:00,
2013-10-11 01:05:00,50.2,43.2,30.02,NNE,32,0.0,0.0,77,0.00,,,-99.99,Weather View 32 v60,2013-10-11 08:05:00,
2013-10-11 01:19:00,49.6,43.0,30.02,NNE,32,0.0,0.0,78,0.00,,,-99.99,Weather View 32 v60,2013-10-11 08:19:00,
2013-10-11 01:29:00,49.5,43.2,30.02,NNE,32,0.0,0.0,79,0.00,,,-99.99,Weather View 32 v60,2013-10-11 08:29:00,
2013-10-11 01:39:00,49.3,43.0,30.02,NNE,32,0.0,0.0,79,0.00,,,-99.99,Weather View 32 v60,2013-10-11 08:39:00,
2013-10-11 01:49:00,49.1,43.2,30.02,NNE,32,0.0,0.0,80,0.00,,,-99.99,Weather View 32 v60,2013-10-11 08:49:00,
2013-10-11 01:59:00,48.7,43.2,30.02,NNE,32,0.0,0.0,81,0.00,,,-99.99,Weather View 32 v60,2013-10-11 08:59:00,
2013-10-11 02:06:00,48.7,43.2,30.02,NNE,32,0.0,0.0,81,0.00,,,-99.99,Weather View 32 v60,2013-10-11 09:06:00,
2013-10-11 02:19:00,48.6,43.3,30.02,NNE,32,0.0,0.0,82,0.00,,,-99.99,Weather View 32 v60,2013-10-11 09:19:00,
2013-10-11 02:29:00,48.2,43.0,30.02,NNE,32,0.0,0.0,82,0.00,,,-99.99,Weather View 32 v60,2013-10-11 09:29:00,
2013-10-11 02:39:00,48.2,43.3,30.02,NNE,32,0.0,0.0,83,0.00,,,-99.99,Weather View 32 v60,2013-10-11 09:39:00,
2013-10-11 02:49:00,48.4,44.1,30.02,NNE,32,0.0,0.0,85,0.00,,,-99.99,Weather View 32 v60,2013-10-11 09:49:00,
2013-10-11 02:59:00,48.2,43.9,30.02,NNE,32,0.0,0.0,85,0.00,,,-99.99,Weather View 32 v60,2013-10-11 09:59:00,
2013-10-11 03:07:00,48.2,43.9,30.02,NNE,32,0.0,0.0,85,0.00,,,-99.99,Weather View 32 v60,2013-10-11 10:07:00,
2013-10-11 03:19:00,47.8,43.5,30.02,NNE,32,0.0,0.0,85,0.00,,,-99.99,Weather View 32 v60,2013-10-11 10:19:00,
2013-10-11 03:29:00,47.7,43.4,30.02,NNE,32,0.0,0.0,85,0.00,,,-99.99,Weather View 32 v60,2013-10-11 10:29:00,
2013-10-11 03:39:00,47.5,43.2,30.02,NNE,32,0.0,0.0,85,0.00,,,-99.99,Weather View 32 v60,2013-10-11 10:39:00,
2013-10-11 03:49:00,47.5,43.2,30.02,NNE,32,0.0,0.0,85,0.00,,,-99.99,Weather View 32 v60,2013-10-11 10:49:00,
2013-10-11 03:59:00,47.3,43.3,30.02,NNE,32,0.0,0.0,86,0.00,,,-99.99,Weather View 32 v60,2013-10-11 10:59:00,
2013-10-11 04:07:00,47.3,43.3,30.02,NNE,32,0.0,0.0,86,0.00,,,-99.99,Weather View 32 v60,2013-10-11 11:07:00,
2013-10-11 04:19:00,46.8,42.8,30.05,NNE,32,0.0,0.0,86,0.00,,,-99.99,Weather View 32 v60,2013-10-11 11:19:00,
2013-10-11 04:29:00,46.6,42.6,30.05,NNE,32,0.0,0.0,86,0.00,,,-99.99,Weather View 32 v60,2013-10-11 11:29:00,
2013-10-11 04:39:00,46.6,42.9,30.05,NNE,32,0.0,0.0,87,0.00,,,-99.99,Weather View 32 v60,2013-10-11 11:39:00,
2013-10-11 04:49:00,46.2,42.6,30.05,NNE,32,0.0,0.0,87,0.00,,,-99.99,Weather View 32 v60,2013-10-11 11:49:00,
2013-10-11 05:00:00,46.0,42.4,30.05,NNE,32,0.0,0.0,87,0.00,,,-99.99,Weather View 32 v60,2013-10-11 12:00:00,
2013-10-11 05:08:00,46.0,42.4,30.05,NNE,32,0.0,0.0,87,0.00,,,-99.99,Weather View 32 v60,2013-10-11 12:08:00,
2013-10-11 05:19:00,45.9,42.5,30.05,NNE,32,0.0,0.0,88,0.00,,,-99.99,Weather View 32 v60,2013-10-11 12:19:00,
2013-10-11 05:29:00,45.9,42.5,30.05,NNE,32,0.0,0.0,88,0.00,,,-99.99,Weather View 32 v60,2013-10-11 12:29:00,
2013-10-11 05:39:00,45.9,42.8,30.05,NNE,32,0.0,0.0,89,0.00,,,-99.99,Weather View 32 v60,2013-10-11 12:39:00,
2013-10-11 05:49:00,45.9,43.1,30.05,NNE,32,0.0,0.0,90,0.00,,,-99.99,Weather View 32 v60,2013-10-11 12:49:00,
2013-10-11 05:59:00,45.9,43.1,30.05,NNE,32,0.0,0.0,90,0.00,,,-99.99,Weather View 32 v60,2013-10-11 12:59:00,
2013-10-11 06:08:00,45.9,43.1,30.05,NNE,32,0.0,0.0,90,0.00,,,-99.99,Weather View 32 v60,2013-10-11 13:08:00,
2013-10-11 06:19:00,45.7,43.2,30.05,NNE,32,0.0,0.0,91,0.00,,,-99.99,Weather View 32 v60,2013-10-11 13:19:00,
2013-10-11 06:29:00,45.5,43.0,30.05,NNE,32,0.0,0.0,91,0.00,,,-99.99,Weather View 32 v60,2013-10-11 13:29:00,
2013-10-11 06:39:00,45.1,42.7,30.05,NNE,32,0.0,0.0,91,0.00,,,-99.99,Weather View 32 v60,2013-10-11 13:39:00,
2013-10-11 06:49:00,45.1,43.0,30.08,NNE,32,0.0,0.0,92,0.00,,,-99.99,Weather View 32 v60,2013-10-11 13:49:00,
2013-10-11 06:59:00,45.1,43.0,30.08,NNE,32,0.0,0.0,92,0.00,,,-99.99,Weather View 32 v60,2013-10-11 13:59:00,
2013-10-11 07:09:00,45.1,43.0,30.08,NNE,32,0.0,0.0,92,0.00,,,-99.99,Weather View 32 v60,2013-10-11 14:09:00,
2013-10-11 07:19:00,44.6,42.4,30.08,NNE,32,0.0,0.0,92,0.00,,,-99.99,Weather View 32 v60,2013-10-11 14:19:00,
2013-10-11 07:29:00,45.0,42.8,30.08,NNE,32,0.0,0.0,92,0.00,,,-99.99,Weather View 32 v60,2013-10-11 14:29:00,
2013-10-11 07:39:00,45.3,43.4,30.08,NNE,32,0.0,0.0,93,0.00,,,-99.99,Weather View 32 v60,2013-10-11 14:39:00,
2013-10-11 07:49:00,45.9,43.9,30.08,NNE,32,0.0,0.0,93,0.00,,,-99.99,Weather View 32 v60,2013-10-11 14:49:00,
2013-10-11 07:59:00,46.2,44.3,30.08,NNE,31,0.0,0.0,93,0.00,,,-99.99,Weather View 32 v60,2013-10-11 14:59:00,
2013-10-11 08:09:00,46.2,44.3,30.08,NNE,31,0.0,0.0,93,0.00,,,-99.99,Weather View 32 v60,2013-10-11 15:09:00,
2013-10-11 08:19:00,47.8,45.9,30.08,NNE,30,0.0,0.0,93,0.00,,,-99.99,Weather View 32 v60,2013-10-11 15:19:00,
2013-10-11 08:29:00,48.9,47.3,30.08,NNE,30,0.0,0.0,94,0.00,,,-99.99,Weather View 32 v60,2013-10-11 15:29:00,
2013-10-11 08:39:00,50.4,48.7,30.08,East,92,0.0,0.0,94,0.00,,,-99.99,Weather View 32 v60,2013-10-11 15:39:00,
2013-10-11 08:49:00,52.2,50.2,30.08,ESE,123,0.0,0.0,93,0.00,,,-99.99,Weather View 32 v60,2013-10-11 15:49:00,
2013-10-11 08:59:00,53.8,50.9,30.08,SE,134,0.0,0.0,90,0.00,,,-99.99,Weather View 32 v60,2013-10-11 15:59:00,
2013-10-11 09:10:00,54.9,50.1,30.08,ENE,70,0.0,0.0,84,0.00,,,-99.99,Weather View 32 v60,2013-10-11 16:10:00,
2013-10-11 09:19:00,55.4,48.6,30.08,North,4,0.0,0.0,78,0.00,,,-99.99,Weather View 32 v60,2013-10-11 16:19:00,
2013-10-11 09:29:00,55.9,48.8,30.08,NNW,334,0.0,0.0,77,0.00,,,-99.99,Weather View 32 v60,2013-10-11 16:29:00,
2013-10-11 09:39:00,57.0,48.4,30.08,SE,135,0.0,0.0,73,0.00,,,-99.99,Weather View 32 v60,2013-10-11 16:39:00,
2013-10-11 09:49:00,58.3,48.5,30.08,SW,230,0.0,0.0,70,0.00,,,-99.99,Weather View 32 v60,2013-10-11 16:49:00,
2013-10-11 09:59:00,59.0,48.8,30.08,NNW,335,0.0,0.0,69,0.00,,,-99.99,Weather View 32 v60,2013-10-11 16:59:00,
2013-10-11 10:09:00,59.7,49.1,30.08,NW,321,0.0,0.0,68,0.00,,,-99.99,Weather View 32 v60,2013-10-11 17:09:00,
2013-10-11 10:19:00,60.3,48.8,30.08,North,11,0.0,0.0,66,0.00,,,-99.99,Weather View 32 v60,2013-10-11 17:19:00,
2013-10-11 10:29:00,61.3,49.0,30.08,WSW,247,0.0,0.0,64,0.00,,,-99.99,Weather View 32 v60,2013-10-11 17:29:00,
2013-10-11 10:39:00,61.7,48.5,30.08,NE,34,0.0,0.0,62,0.00,,,-99.99,Weather View 32 v60,2013-10-11 17:39:00,
2013-10-11 10:49:00,62.6,48.5,30.08,ESE,122,0.0,0.0,60,0.00,,,-99.99,Weather View 32 v60,2013-10-11 17:49:00,
2013-10-11 10:59:00,63.9,47.3,30.08,NNW,335,0.0,0.0,55,0.00,,,-99.99,Weather View 32 v60,2013-10-11 17:59:00,
2013-10-11 11:09:00,65.1,47.0,30.08,NE,43,0.0,0.0,52,0.00,,,-99.99,Weather View 32 v60,2013-10-11 18:09:00,
2013-10-11 11:19:00,65.5,46.3,30.08,South,184,0.0,0.0,50,0.00,,,-99.99,Weather View 32 v60,2013-10-11 18:19:00,
2013-10-11 11:29:00,66.0,46.3,30.08,East,92,0.0,0.0,49,0.00,,,-99.99,Weather View 32 v60,2013-10-11 18:29:00,
2013-10-11 11:39:00,66.9,46.0,30.08,ENE,63,0.0,0.0,47,0.00,,,-99.99,Weather View 32 v60,2013-10-11 18:39:00,
2013-10-11 11:49:00,67.1,45.6,30.08,ENE,73,0.0,0.0,46,0.00,,,-99.99,Weather View 32 v60,2013-10-11 18:49:00,
2013-10-11 11:59:00,68.4,46.1,30.08,ENE,70,0.0,0.0,45,0.00,,,-99.99,Weather View 32 v60,2013-10-11 18:59:00,
2013-10-11 12:09:00,69.3,46.4,30.08,NNW,330,0.0,0.0,44,0.00,,,-99.99,Weather View 32 v60,2013-10-11 19:09:00,
2013-10-11 12:19:00,70.3,46.7,30.08,SSW,205,0.0,0.0,43,0.00,,,-99.99,Weather View 32 v60,2013-10-11 19:19:00,
2013-10-11 12:29:00,71.2,44.3,30.05,West,281,0.0,0.0,38,0.00,,,-99.99,Weather View 32 v60,2013-10-11 19:29:00,
2013-10-11 12:39:00,71.4,44.4,30.05,SE,138,0.0,0.0,38,0.00,,,-99.99,Weather View 32 v60,2013-10-11 19:39:00,
2013-10-11 12:49:00,72.1,43.6,30.05,NE,40,0.0,0.0,36,0.00,,,-99.99,Weather View 32 v60,2013-10-11 19:49:00,
2013-10-11 12:59:00,72.5,43.2,30.05,WSW,243,0.0,0.0,35,0.00,,,-99.99,Weather View 32 v60,2013-10-11 19:59:00,
2013-10-11 13:09:00,73.4,44.7,30.05,NNW,331,0.0,4.0,36,0.00,,,-99.99,Weather View 32 v60,2013-10-11 20:09:00,
2013-10-11 13:19:00,73.4,44.7,30.05,SW,218,6.0,6.0,36,0.00,,,-99.99,Weather View 32 v60,2013-10-11 20:19:00,
2013-10-11 13:29:00,73.6,44.9,30.05,NNW,330,0.0,7.0,36,0.00,,,-99.99,Weather View 32 v60,2013-10-11 20:29:00,
2013-10-11 13:39:00,73.6,44.9,30.05,NNE,16,0.0,7.0,36,0.00,,,-99.99,Weather View 32 v60,2013-10-11 20:39:00,
2013-10-11 13:49:00,74.8,44.5,30.05,WNW,285,0.0,7.0,34,0.00,,,-99.99,Weather View 32 v60,2013-10-11 20:49:00,
2013-10-11 13:59:00,75.0,44.7,30.02,West,261,0.0,7.0,34,0.00,,,-99.99,Weather View 32 v60,2013-10-11 20:59:00,
2013-10-11 14:09:00,75.7,44.5,30.02,NW,321,0.0,7.0,33,0.00,,,-99.99,Weather View 32 v60,2013-10-11 21:09:00,
2013-10-11 14:19:00,75.7,43.7,30.02,NW,310,0.0,7.0,32,0.00,,,-99.99,Weather View 32 v60,2013-10-11 21:19:00,
2013-10-11 14:29:00,75.7,43.7,30.02,North,351,0.0,8.0,32,0.00,,,-99.99,Weather View 32 v60,2013-10-11 21:29:00,
2013-10-11 14:39:00,75.7,43.7,30.02,North,351,0.0,8.0,32,0.00,,,-99.99,Weather View 32 v60,2013-10-11 21:39:00,
2013-10-11 14:49:00,75.4,43.4,30.02,WSW,240,0.0,8.0,32,0.00,,,-99.99,Weather View 32 v60,2013-10-11 21:49:00,
2013-10-11 14:59:00,75.4,43.4,30.02,WSW,251,5.0,8.0,32,0.00,,,-99.99,Weather View 32 v60,2013-10-11 21:59:00,
2013-10-11 15:09:00,75.0,43.1,30.02,SSW,198,0.0,8.0,32,0.00,,,-99.99,Weather View 32 v60,2013-10-11 22:09:00,
2013-10-11 15:19:00,75.4,43.4,30.02,NNE,30,0.0,8.0,32,0.00,,,-99.99,Weather View 32 v60,2013-10-11 22:19:00,
2013-10-11 15:29:00,74.8,42.1,30.02,WNW,292,0.0,8.0,31,0.00,,,-99.99,Weather View 32 v60,2013-10-11 22:29:00,
2013-10-11 15:39:00,75.0,42.2,30.02,WNW,296,0.0,8.0,31,0.00,,,-99.99,Weather View 32 v60,2013-10-11 22:39:00,
2013-10-11 15:49:00,75.0,42.2,30.02,SW,236,0.0,8.0,31,0.00,,,-99.99,Weather View 32 v60,2013-10-11 22:49:00,
2013-10-11 15:59:00,74.7,41.9,30.02,West,264,0.0,8.0,31,0.00,,,-99.99,Weather View 32 v60,2013-10-11 22:59:00,
2013-10-11 16:09:00,74.1,42.3,30.02,WNW,282,4.0,10.0,32,0.00,,,-99.99,Weather View 32 v60,2013-10-11 23:09:00,
2013-10-11 16:19:00,73.8,42.0,29.99,WSW,251,0.0,11.0,32,0.00,,,-99.99,Weather View 32 v60,2013-10-11 23:19:00,
2013-10-11 16:29:00,73.6,41.8,29.99,NNW,346,0.0,11.0,32,0.00,,,-99.99,Weather View 32 v60,2013-10-11 23:29:00,
2013-10-11 16:39:00,73.8,42.0,29.99,SSW,212,0.0,11.0,32,0.00,,,-99.99,Weather View 32 v60,2013-10-11 23:39:00,
2013-10-11 16:49:00,73.4,41.7,29.99,WNW,295,0.0,11.0,32,0.00,,,-99.99,Weather View 32 v60,2013-10-11 23:49:00,
2013-10-11 16:59:00,72.5,40.9,29.99,WNW,288,0.0,11.0,32,0.00,,,-99.99,Weather View 32 v60,2013-10-11 23:59:00,
2013-10-11 17:09:00,72.3,40.7,29.99,SW,229,0.0,11.0,32,0.00,,,-99.99,Weather View 32 v60,2013-10-12 00:09:00,
2013-10-11 17:19:00,71.8,40.3,29.99,NNE,13,0.0,6.0,32,0.00,,,-99.99,Weather View 32 v60,2013-10-12 00:19:00,
2013-10-11 17:29:00,71.4,39.9,29.99,West,271,0.0,6.0,32,0.00,,,-99.99,Weather View 32 v60,2013-10-12 00:29:00,
2013-10-11 17:39:00,70.9,39.5,29.99,WNW,293,0.0,6.0,32,0.00,,,-99.99,Weather View 32 v60,2013-10-12 00:39:00,
2013-10-11 17:49:00,70.2,39.6,29.99,NNW,334,0.0,4.0,33,0.00,,,-99.99,Weather View 32 v60,2013-10-12 00:49:00,
2013-10-11 17:59:00,69.1,38.7,29.99,NNW,329,0.0,4.0,33,0.00,,,-99.99,Weather View 32 v60,2013-10-12 00:59:00,
2013-10-11 18:10:00,68.0,38.5,29.99,WSW,252,0.0,4.0,34,0.00,,,-99.99,Weather View 32 v60,2013-10-12 01:10:00,
2013-10-11 18:15:00,68.0,38.5,29.99,WSW,252,0.0,4.0,34,0.00,,,-99.99,Weather View 32 v60,2013-10-12 01:15:00,
2013-10-11 18:30:00,65.7,40.0,29.99,NNW,342,0.0,3.0,39,0.00,,,-99.99,Weather View 32 v60,2013-10-12 01:30:00,
2013-10-11 18:39:00,64.6,39.7,29.99,North,356,0.0,3.0,40,0.00,,,-99.99,Weather View 32 v60,2013-10-12 01:39:00,
2013-10-11 18:49:00,63.5,38.7,29.99,NNW,327,0.0,3.0,40,0.00,,,-99.99,Weather View 32 v60,2013-10-12 01:49:00,
2013-10-11 18:59:00,62.8,39.3,29.99,NNW,327,0.0,0.0,42,0.00,,,-99.99,Weather View 32 v60,2013-10-12 01:59:00,
2013-10-11 19:09:00,62.1,40.4,29.99,WSW,248,0.0,0.0,45,0.00,,,-99.99,Weather View 32 v60,2013-10-12 02:09:00,
2013-10-11 19:15:00,62.1,40.4,29.99,WSW,248,0.0,0.0,45,0.00,,,-99.99,Weather View 32 v60,2013-10-12 02:15:00,
2013-10-11 19:29:00,60.8,42.0,29.99,NNE,28,0.0,0.0,50,0.00,,,-99.99,Weather View 32 v60,2013-10-12 02:29:00,
2013-10-11 19:39:00,59.9,41.7,29.99,NNW,332,0.0,0.0,51,0.00,,,-99.99,Weather View 32 v60,2013-10-12 02:39:00,
2013-10-11 19:49:00,59.5,41.9,29.99,NNW,332,0.0,0.0,52,0.00,,,-99.99,Weather View 32 v60,2013-10-12 02:49:00,
2013-10-11 19:59:00,59.0,41.9,29.99,SSW,199,0.0,0.0,53,0.00,,,-99.99,Weather View 32 v60,2013-10-12 02:59:00,
2013-10-11 20:09:00,58.5,44.2,29.99,West,264,0.0,0.0,59,0.00,,,-99.99,Weather View 32 v60,2013-10-12 03:09:00,
2013-10-11 20:16:00,58.5,44.2,29.99,West,264,0.0,0.0,59,0.00,,,-99.99,Weather View 32 v60,2013-10-12 03:16:00,
2013-10-11 20:29:00,57.6,44.2,29.99,West,262,0.0,0.0,61,0.00,,,-99.99,Weather View 32 v60,2013-10-12 03:29:00,
2013-10-11 20:39:00,57.0,44.1,29.99,West,262,0.0,0.0,62,0.00,,,-99.99,Weather View 32 v60,2013-10-12 03:39:00,
2013-10-11 20:49:00,56.5,44.0,29.99,West,262,0.0,0.0,63,0.00,,,-99.99,Weather View 32 v60,2013-10-12 03:49:00,
2013-10-11 20:59:00,55.9,43.9,29.99,West,263,0.0,0.0,64,0.00,,,-99.99,Weather View 32 v60,2013-10-12 03:59:00,
2013-10-11 21:09:00,55.4,43.8,29.99,West,262,0.0,0.0,65,0.00,,,-99.99,Weather View 32 v60,2013-10-12 04:09:00,
2013-10-11 21:16:00,55.4,43.8,29.99,West,262,0.0,0.0,65,0.00,,,-99.99,Weather View 32 v60,2013-10-12 04:16:00,
2013-10-11 21:19:00,54.9,43.7,30.02,West,263,0.0,0.0,66,0.00,,,-99.99,Weather View 32 v60,2013-10-12 04:19:00,
2013-10-11 21:29:00,54.3,44.0,30.02,West,263,0.0,0.0,68,0.00,,,-99.99,Weather View 32 v60,2013-10-12 04:29:00,
2013-10-11 21:39:00,54.0,44.0,30.02,West,263,0.0,0.0,69,0.00,,,-99.99,Weather View 32 v60,2013-10-12 04:39:00,
2013-10-11 21:50:00,53.8,44.6,30.02,West,263,0.0,0.0,71,0.00,,,-99.99,Weather View 32 v60,2013-10-12 04:50:00,
2013-10-11 21:59:00,53.4,44.6,30.02,West,263,0.0,0.0,72,0.00,,,-99.99,Weather View 32 v60,2013-10-12 04:59:00,
2013-10-11 22:10:00,53.1,44.3,30.02,West,263,0.0,0.0,72,0.00,,,-99.99,Weather View 32 v60,2013-10-12 05:10:00,
2013-10-11 22:17:00,53.1,44.3,30.02,West,263,0.0,0.0,72,0.00,,,-99.99,Weather View 32 v60,2013-10-12 05:17:00,
2013-10-11 22:29:00,52.7,44.3,30.02,SW,223,0.0,0.0,73,0.00,,,-99.99,Weather View 32 v60,2013-10-12 05:29:00,
2013-10-11 22:39:00,52.3,43.9,30.02,SW,223,0.0,0.0,73,0.00,,,-99.99,Weather View 32 v60,2013-10-12 05:39:00,
2013-10-11 22:49:00,51.8,43.8,30.02,SW,223,0.0,0.0,74,0.00,,,-99.99,Weather View 32 v60,2013-10-12 05:49:00,
2013-10-11 22:59:00,51.4,43.4,30.02,SW,223,0.0,0.0,74,0.00,,,-99.99,Weather View 32 v60,2013-10-12 05:59:00,
2013-10-11 23:09:00,51.1,43.4,30.02,SW,223,0.0,0.0,75,0.00,,,-99.99,Weather View 32 v60,2013-10-12 06:09:00,
2013-10-11 23:17:00,51.1,43.4,30.02,SW,223,0.0,0.0,75,0.00,,,-99.99,Weather View 32 v60,2013-10-12 06:17:00,
2013-10-11 23:29:00,50.4,43.1,30.02,SW,223,0.0,0.0,76,0.00,,,-99.99,Weather View 32 v60,2013-10-12 06:29:00,
2013-10-11 23:39:00,50.2,43.2,30.02,SW,223,0.0,0.0,77,0.00,,,-99.99,Weather View 32 v60,2013-10-12 06:39:00,
2013-10-11 23:49:00,50.0,43.1,30.02,SW,223,0.0,0.0,77,0.00,,,-99.99,Weather View 32 v60,2013-10-12 06:49:00,
2013-10-11 23:59:00,49.6,43.0,30.02,SW,223,0.0,0.0,78,0.00,,,-99.99,Weather View 32 v60,2013-10-12 06:59:00,